Terminal Aerodrome Forecast
Issued by NWS

Home | Current Version | Previous Version | Text Only | Print | Product List | Glossary On
Versions: 1 2 3 4 5 6 7 8 9 10 11 12 13 14 15 16 17
000
FTUS42 KGSP 202300
TAFAND
TAF
KAND 202337Z 2100/2124 33010KT P6SM VCSH BKN060
     FM210200 00000KT P6SM SCT060 BKN250
     FM211300 02003KT P6SM SCT250
     FM211800 32006KT P6SM SCT070=

USA.gov is the U.S. government's official web portal to all federal, state and local government web resources and services.